Time;durP1;ratioP1;P1;durP2;ratioP2;P2;SDS_P1;SDS_P2;PMS_P1;PMS_P2;Temp;Humidity;BMP_temperature;BMP_pressure;BME280_temperature;BME280_humidity;BME280_pressure;Samples;Min_cycle;Max_cycle;Signal;HPM_P1;HPM_P2
2024/01/01 00:00:45;;;;;;;84.13;53.13;;;;;;;9.91;100.00;12880.91;5092888;28;20211;-63
2024/01/01 00:03:12;;;;;;;97.83;60.03;;;;;;;9.92;100.00;9038.16;5093114;28;20566;-64
2024/01/01 00:05:40;;;;;;;96.03;59.87;;;;;;;9.92;100.00;6478.66;5093435;28;20192;-64
2024/01/01 00:08:08;;;;;;;102.10;61.93;;;;;;;9.93;100.00;3921.22;5093080;28;20245;-64
2024/01/01 00:10:35;;;;;;;97.67;59.33;;;;;;;9.94;100.00;3282.25;5093052;28;20196;-64
2024/01/01 00:13:02;;;;;;;88.43;57.33;;;;;;;10.08;100.00;2005.63;5092655;28;20184;-64
2024/01/01 00:15:29;;;;;;;96.03;56.80;;;;;;;10.06;100.00;727.91;5093021;28;20631;-65
2024/01/01 00:17:56;;;;;;;72.93;48.17;;;;;;;9.76;100.00;-1507.47;5092928;28;20188;-64
2024/01/01 00:20:23;;;;;;;78.63;51.00;;;;;;;9.83;100.00;-4695.63;5092870;28;20666;-64
2024/01/01 00:22:51;;;;;;;58.90;38.33;;;;;;;9.90;100.00;-4377.06;5092617;28;20184;-64
2024/01/01 00:25:18;;;;;;;71.80;47.67;;;;;;;10.05;100.00;-4377.38;5093058;28;20612;-64
2024/01/01 00:27:45;;;;;;;75.13;48.63;;;;;;;10.05;100.00;-549.22;5092673;28;20222;-65
2024/01/01 00:30:13;;;;;;;78.23;49.27;;;;;;;10.00;100.00;-1187.72;5092717;28;20699;-64
2024/01/01 00:32:40;;;;;;;72.37;46.47;;;;;;;10.07;100.00;-549.13;5092603;28;20188;-65
2024/01/01 00:35:08;;;;;;;73.63;50.33;;;;;;;9.89;100.00;2323.44;5092299;28;20184;-63
2024/01/01 00:37:36;;;;;;;70.13;47.10;;;;;;;9.99;100.00;2643.75;5092305;28;20241;-65
2024/01/01 00:40:06;;;;;;;74.53;46.83;;;;;;;10.11;100.00;1367.00;5092309;28;20259;-64
2024/01/01 00:42:33;;;;;;;69.03;45.70;;;;;;;10.07;100.00;1686.16;5092316;28;20192;-64
2024/01/01 00:45:00;;;;;;;47.83;31.93;;;;;;;10.04;100.00;1366.47;5092061;28;20190;-65
2024/01/01 00:47:27;;;;;;;44.17;28.80;;;;;;;10.15;100.00;-1825.56;5091842;28;20250;-65
2024/01/01 00:49:54;;;;;;;50.53;35.63;;;;;;;10.28;100.00;-2463.59;5091751;28;20281;-65
2024/01/01 00:52:21;;;;;;;47.13;33.73;;;;;;;10.36;100.00;-1825.06;5092150;28;20233;-64
2024/01/01 00:54:48;;;;;;;46.33;32.30;;;;;;;10.40;100.00;-1825.00;5091942;28;20683;-64
2024/01/01 00:57:16;;;;;;;52.53;36.87;;;;;;;10.27;100.00;1687.66;5092252;28;20184;-64
2024/01/01 00:59:43;;;;;;;56.17;34.10;;;;;;;10.22;100.00;728.88;5092004;28;20179;-64
2024/01/01 01:02:10;;;;;;;52.60;33.83;;;;;;;10.28;100.00;-1825.25;5092221;28;20234;-64
2024/01/01 01:04:37;;;;;;;52.93;35.50;;;;;;;10.25;100.00;-2144.47;5092211;28;20180;-64
2024/01/01 01:07:06;;;;;;;39.53;28.20;;;;;;;10.21;100.00;-1825.41;5092182;28;20188;-64
2024/01/01 01:09:33;;;;;;;39.67;31.53;;;;;;;10.18;100.00;-2144.59;5091807;28;20190;-65
2024/01/01 01:12:00;;;;;;;45.47;32.90;;;;;;;10.23;100.00;-1186.97;5091920;28;20184;-63
2024/01/01 01:14:28;;;;;;;42.77;30.47;;;;;;;10.19;100.00;-229.34;5091808;28;20184;-64
2024/01/01 01:16:55;;;;;;;32.87;23.60;;;;;;;10.28;100.00;1048.72;5091751;28;20188;-64
2024/01/01 01:19:22;;;;;;;32.93;25.70;;;;;;;10.27;100.00;409.81;5092242;28;20188;-64
2024/01/01 01:21:49;;;;;;;36.13;26.27;;;;;;;10.27;100.00;409.78;5092021;28;20281;-64
2024/01/01 01:24:18;;;;;;;37.20;28.47;;;;;;;10.38;100.00;729.91;5092065;28;20657;-64
2024/01/01 01:26:45;;;;;;;32.50;27.17;;;;;;;10.32;100.00;1688.06;5091752;28;20180;-64
2024/01/01 01:29:12;;;;;;;37.53;28.60;;;;;;;10.44;100.00;2648.03;5092209;28;20188;-64
2024/01/01 01:31:41;;;;;;;42.50;30.33;;;;;;;10.54;100.00;2649.00;5092093;28;20630;-64
2024/01/01 01:34:08;;;;;;;41.47;30.17;;;;;;;10.63;100.00;3609.31;5091541;28;20192;-63
2024/01/01 01:36:35;;;;;;;43.77;30.60;;;;;;;10.42;100.00;5526.38;5091990;28;20696;-65
2024/01/01 01:39:02;;;;;;;41.37;31.93;;;;;;;10.36;100.00;4885.75;5091949;28;20187;-65
2024/01/01 01:41:29;;;;;;;46.00;30.30;;;;;;;10.42;100.00;2967.56;5091398;28;20291;-65
2024/01/01 01:43:56;;;;;;;44.00;30.13;;;;;;;10.29;100.00;1368.31;5091744;28;20631;-64
2024/01/01 01:46:25;;;;;;;40.47;30.23;;;;;;;10.39;100.00;-228.34;5091883;28;20639;-64
2024/01/01 01:48:54;;;;;;;39.47;31.03;;;;;;;10.52;100.00;-866.63;5091504;28;20188;-64
2024/01/01 01:51:21;;;;;;;40.27;28.97;;;;;;;10.26;100.00;409.75;5091576;28;20233;-65
2024/01/01 01:53:48;;;;;;;39.27;30.20;;;;;;;10.19;100.00;-1506.28;5091397;28;20228;-64
2024/01/01 01:56:17;;;;;;;42.27;31.00;;;;;;;10.12;100.00;-3101.81;5091441;28;20180;-64
2024/01/01 01:58:44;;;;;;;41.60;30.17;;;;;;;10.08;100.00;-4058.56;5091820;28;20180;-64
2024/01/01 02:01:14;;;;;;;46.43;30.73;;;;;;;10.04;100.00;-4377.34;5095192;28;20204;-65
2024/01/01 02:03:41;;;;;;;38.53;29.30;;;;;;;9.98;100.00;-3420.72;5095320;28;20233;-64
2024/01/01 02:06:09;;;;;;;44.93;30.47;;;;;;;10.07;100.00;-2782.84;5095468;28;20238;-64
2024/01/01 02:08:37;;;;;;;41.23;31.03;;;;;;;10.10;100.00;-1187.38;5095602;28;20184;-65
2024/01/01 02:11:04;;;;;;;39.67;29.43;;;;;;;10.20;100.00;-548.56;5095488;28;20189;-63
2024/01/01 02:13:31;;;;;;;41.60;29.13;;;;;;;10.10;100.00;1047.53;5095214;28;20191;-65
2024/01/01 02:16:00;;;;;;;48.30;32.93;;;;;;;10.26;100.00;-228.97;5095296;28;20198;-64
2024/01/01 02:18:27;;;;;;;44.50;31.13;;;;;;;10.29;100.00;-1186.78;5094907;28;20226;-64
2024/01/01 02:20:55;;;;;;;51.60;36.53;;;;;;;10.28;100.00;-1186.81;5094883;28;20261;-64
2024/01/01 02:23:24;;;;;;;50.13;35.23;;;;;;;10.35;100.00;-1186.56;5094906;28;20191;-64
2024/01/01 02:25:52;;;;;;;52.90;35.60;;;;;;;10.18;100.00;-867.91;5094798;28;20237;-64
2024/01/01 02:28:19;;;;;;;47.57;34.93;;;;;;;10.07;100.00;-868.31;5094700;28;20241;-65
2024/01/01 02:30:46;;;;;;;52.27;34.47;;;;;;;10.08;100.00;-549.06;5094793;28;20184;-64
2024/01/01 02:33:14;;;;;;;53.27;36.97;;;;;;;9.96;100.00;-1825.94;5094952;28;20182;-64
2024/01/01 02:35:41;;;;;;;53.90;35.90;;;;;;;9.91;100.00;-1188.00;5094908;28;20231;-64
2024/01/01 02:38:08;;;;;;;46.77;34.20;;;;;;;9.90;100.00;726.88;5095086;28;20229;-65
2024/01/01 02:40:37;;;;;;;53.17;34.93;;;;;;;9.90;100.00;726.91;5094467;28;20195;-64
2024/01/01 02:43:04;;;;;;;54.27;35.80;;;;;;;10.02;100.00;1685.72;5094400;28;20191;-64
2024/01/01 02:45:32;;;;;;;49.73;33.33;;;;;;;10.02;100.00;2644.09;5094692;28;20214;-64
2024/01/01 02:47:59;;;;;;;48.73;34.20;;;;;;;10.05;100.00;4242.28;5094572;28;20187;-63
2024/01/01 02:50:27;;;;;;;49.63;34.13;;;;;;;10.21;100.00;4244.22;5094598;28;20184;-63
2024/01/01 02:52:54;;;;;;;47.53;33.50;;;;;;;10.27;100.00;5204.34;5094072;28;20227;-64
2024/01/01 02:55:21;;;;;;;49.37;34.03;;;;;;;10.28;100.00;5524.38;5094314;28;20183;-64
2024/01/01 02:57:49;;;;;;;47.77;34.27;;;;;;;10.27;100.00;8084.53;5094424;28;20187;-64
2024/01/01 03:00:17;;;;;;;48.80;33.00;;;;;;;10.16;100.00;9042.84;5094672;28;20250;-64
2024/01/01 03:02:44;;;;;;;41.87;32.53;;;;;;;10.05;100.00;8080.59;5094528;28;20601;-63
2024/01/01 03:05:11;;;;;;;47.03;32.13;;;;;;;10.00;100.00;3922.03;5094397;28;20642;-65
2024/01/01 03:07:38;;;;;;;46.73;33.30;;;;;;;10.14;100.00;409.03;5094108;28;20184;-65
2024/01/01 03:10:06;;;;;;;44.03;32.67;;;;;;;10.13;100.00;-1506.44;5094357;28;20284;-64
2024/01/01 03:12:33;;;;;;;51.33;33.50;;;;;;;10.17;100.00;-867.97;5093288;28;20628;-65
2024/01/01 03:15:03;;;;;;;45.40;33.17;;;;;;;10.07;100.00;-3420.75;5094240;28;20562;-64
2024/01/01 03:17:30;;;;;;;44.60;31.23;;;;;;;10.10;100.00;-2782.81;5094156;28;20680;-64
2024/01/01 03:19:57;;;;;;;48.20;32.57;;;;;;;10.09;100.00;89.47;5093727;28;20218;-64
2024/01/01 03:22:24;;;;;;;43.80;31.77;;;;;;;10.09;100.00;89.50;5093987;28;20219;-63
2024/01/01 03:24:51;;;;;;;39.60;30.93;;;;;;;9.75;100.00;2322.19;5093865;28;20192;-64
2024/01/01 03:27:18;;;;;;;41.53;32.07;;;;;;;9.75;100.00;2002.84;5094267;28;20192;-64
2024/01/01 03:29:46;;;;;;;46.80;32.77;;;;;;;9.44;100.00;-551.81;5093592;28;20220;-65
2024/01/01 03:32:14;;;;;;;38.80;29.77;;;;;;;9.62;100.00;-1188.94;5093997;28;20189;-64
2024/01/01 03:34:41;;;;;;;43.70;31.20;;;;;;;9.41;100.00;-1827.16;5093940;28;20634;-64
2024/01/01 03:37:08;;;;;;;40.80;31.67;;;;;;;9.49;100.00;-2145.75;5093769;28;20606;-64
2024/01/01 03:39:35;;;;;;;44.17;30.30;;;;;;;9.44;100.00;-1189.50;5093796;28;20593;-64
2024/01/01 03:42:03;;;;;;;41.60;31.47;;;;;;;9.37;100.00;-870.91;5093244;28;20213;-64
2024/01/01 03:44:30;;;;;;;46.60;31.90;;;;;;;9.38;100.00;-1827.22;5093662;28;20250;-64
2024/01/01 03:46:57;;;;;;;43.37;31.10;;;;;;;9.32;100.00;-1189.88;5093209;28;20188;-64
2024/01/01 03:49:25;;;;;;;46.10;31.20;;;;;;;9.27;100.00;-2464.75;5093486;28;20716;-64
2024/01/01 03:51:52;;;;;;;46.87;31.47;;;;;;;9.17;100.00;-1190.38;5093363;28;20682;-64
2024/01/01 03:54:19;;;;;;;48.43;33.13;;;;;;;9.02;100.00;-4375.38;5093002;28;20744;-65
2024/01/01 03:56:46;;;;;;;52.00;35.07;;;;;;;8.89;100.00;-3420.28;5093131;28;20208;-64
2024/01/01 03:59:13;;;;;;;50.43;33.27;;;;;;;9.08;100.00;-553.31;5093288;28;20608;-64
2024/01/01 04:01:40;;;;;;;49.43;32.93;;;;;;;8.95;100.00;3272.00;5092939;28;20265;-64
2024/01/01 04:04:09;;;;;;;49.90;33.33;;;;;;;9.11;100.00;1997.53;5092854;28;20187;-64
2024/01/01 04:06:37;;;;;;;50.90;34.90;;;;;;;9.18;100.00;3274.41;5093189;28;20214;-64
2024/01/01 04:09:04;;;;;;;48.20;33.23;;;;;;;9.21;100.00;2955.56;5093067;28;20184;-64
2024/01/01 04:11:31;;;;;;;52.43;34.07;;;;;;;9.26;100.00;4552.13;5093255;28;20496;-64
2024/01/01 04:13:59;;;;;;;52.97;34.57;;;;;;;9.30;100.00;7427.59;5093018;28;20628;-64
2024/01/01 04:16:26;;;;;;;50.50;34.50;;;;;;;9.32;100.00;5830.31;5092992;28;20195;-64
2024/01/01 04:18:53;;;;;;;55.43;35.00;;;;;;;9.39;100.00;7429.22;5092908;28;20222;-65
2024/01/01 04:21:20;;;;;;;46.70;33.30;;;;;;;9.45;100.00;8709.09;5092525;28;20249;-65
2024/01/01 04:23:49;;;;;;;50.33;33.30;;;;;;;9.48;100.00;9349.44;5091826;28;20257;-64
2024/01/01 04:26:16;;;;;;;46.60;33.37;;;;;;;9.45;100.00;9668.59;5092943;28;20703;-64
2024/01/01 04:28:43;;;;;;;46.57;33.20;;;;;;;9.49;100.00;7750.56;5093071;28;20539;-63
2024/01/01 04:31:10;;;;;;;44.77;30.60;;;;;;;9.52;100.00;6152.91;5092726;28;20573;-64
2024/01/01 04:33:37;;;;;;;47.00;33.27;;;;;;;9.28;100.00;5191.03;5092671;28;20196;-64
2024/01/01 04:36:05;;;;;;;46.00;32.07;;;;;;;8.98;100.00;4229.47;5092616;28;20241;-64
2024/01/01 04:38:32;;;;;;;35.17;27.00;;;;;;;9.15;100.00;1041.09;5092748;28;20191;-64
2024/01/01 04:41:01;;;;;;;41.93;28.77;;;;;;;9.35;100.00;-1508.53;5092285;28;20192;-65
2024/01/01 04:43:28;;;;;;;34.07;25.93;;;;;;;9.58;100.00;-3739.22;5092508;28;20566;-64
2024/01/01 04:45:55;;;;;;;44.23;32.00;;;;;;;9.79;100.00;-2783.00;5092246;28;20191;-64
2024/01/01 04:48:22;;;;;;;46.03;30.67;;;;;;;9.73;100.00;1364.16;5092221;28;20184;-64
2024/01/01 04:50:49;;;;;;;46.80;32.00;;;;;;;9.75;100.00;6795.72;5092160;28;20242;-64
2024/01/01 04:53:16;;;;;;;48.27;33.63;;;;;;;9.61;100.00;11912.47;5092240;28;20228;-64
2024/01/01 04:55:43;;;;;;;53.10;35.17;;;;;;;9.48;100.00;12229.41;5091982;28;20184;-64
2024/01/01 04:58:12;;;;;;;51.47;34.70;;;;;;;9.46;100.00;8709.38;5092058;28;20654;-64
2024/01/01 05:00:39;;;;;;;55.77;36.30;;;;;;;9.42;100.00;5831.88;5091935;28;20237;-65
2024/01/01 05:03:06;;;;;;;60.37;36.13;;;;;;;9.25;100.00;3913.44;5092112;28;20293;-64
2024/01/01 05:05:33;;;;;;;56.73;35.17;;;;;;;9.33;100.00;2637.56;5092259;28;20265;-64
2024/01/01 05:08:00;;;;;;;45.83;31.90;;;;;;;9.20;100.00;2317.31;5091714;28;20188;-64
2024/01/01 05:10:28;;;;;;;46.10;32.83;;;;;;;9.20;100.00;1360.31;5091857;28;20180;-63
2024/01/01 05:12:55;;;;;;;54.27;34.03;;;;;;;8.94;100.00;720.84;5092083;28;20566;-63
2024/01/01 05:15:23;;;;;;;209.10;33.00;;;;;;;9.11;100.00;1040.81;5091847;28;20180;-64
2024/01/01 05:17:50;;;;;;;75.63;34.63;;;;;;;8.88;100.00;720.50;5091874;28;20249;-64
2024/01/01 05:20:17;;;;;;;81.60;31.73;;;;;;;8.72;100.00;1994.28;5091714;28;20183;-64
2024/01/01 05:22:44;;;;;;;192.03;33.03;;;;;;;8.85;100.00;3270.94;5091634;28;20303;-65
2024/01/01 05:25:12;;;;;;;102.93;27.27;;;;;;;8.59;100.00;2630.69;5091982;28;20184;-64
2024/01/01 05:27:39;;;;;;;412.83;37.70;;;;;;;8.73;100.00;3907.47;5091994;28;20616;-63
2024/01/01 05:30:07;;;;;;;228.63;35.77;;;;;;;8.62;100.00;4225.25;5091660;28;20186;-64
2024/01/01 05:32:36;;;;;;;238.97;40.73;;;;;;;8.61;100.00;5820.13;5091878;28;20187;-64
2024/01/01 05:35:03;;;;;;;354.33;44.00;;;;;;;8.64;100.00;6777.91;5093691;28;20184;-63
2024/01/01 05:37:30;;;;;;;237.87;39.60;;;;;;;8.67;100.00;9333.09;5095632;28;20194;-64
2024/01/01 05:39:57;;;;;;;233.60;40.13;;;;;;;8.52;100.00;9330.03;5096009;28;20188;-63
2024/01/01 05:42:24;;;;;;;366.30;43.03;;;;;;;8.64;100.00;9971.31;5095517;28;20283;-64
2024/01/01 05:44:51;;;;;;;228.60;39.30;;;;;;;8.38;100.00;11882.56;5095592;28;20230;-64
2024/01/01 05:47:18;;;;;;;161.00;35.53;;;;;;;8.38;100.00;9965.84;5095572;28;20184;-64
2024/01/01 05:49:47;;;;;;;101.00;34.43;;;;;;;8.12;100.00;8683.63;5095699;28;20176;-63
2024/01/01 05:52:14;;;;;;;55.93;32.47;;;;;;;8.19;100.00;8365.94;5095716;28;20191;-63
2024/01/01 05:54:41;;;;;;;60.37;33.63;;;;;;;8.34;100.00;9007.13;5095253;28;20657;-64
2024/01/01 05:57:08;;;;;;;65.30;35.50;;;;;;;8.41;100.00;10605.31;5095303;28;20234;-64
2024/01/01 05:59:35;;;;;;;52.40;30.30;;;;;;;8.39;100.00;12202.38;5095341;28;20192;-64
2024/01/01 06:02:02;;;;;;;47.13;30.83;;;;;;;8.30;100.00;11561.00;5095163;28;20204;-63
2024/01/01 06:04:29;;;;;;;52.83;34.37;;;;;;;8.40;100.00;12522.25;5095449;28;20188;-64
2024/01/01 06:06:58;;;;;;;53.03;32.93;;;;;;;8.34;100.00;11881.59;5095370;28;20626;-63
2024/01/01 06:09:25;;;;;;;50.57;33.03;;;;;;;8.38;100.00;11243.44;5095029;28;20188;-64
2024/01/01 06:11:52;;;;;;;54.20;34.80;;;;;;;8.45;100.00;11884.28;5095488;28;20606;-64
2024/01/01 06:14:19;;;;;;;56.93;34.57;;;;;;;8.61;100.00;10929.25;5095782;28;20245;-64
2024/01/01 06:16:46;;;;;;;52.30;34.37;;;;;;;8.80;100.00;11253.19;5095331;28;20626;-64
2024/01/01 06:19:13;;;;;;;55.83;34.30;;;;;;;9.09;100.00;10940.19;5095277;28;20187;-65
2024/01/01 06:21:40;;;;;;;51.47;32.07;;;;;;;9.27;100.00;13184.38;5095484;28;20278;-64
2024/01/01 06:24:09;;;;;;;46.90;30.93;;;;;;;9.50;100.00;18965.06;5094976;28;20242;-64
2024/01/01 06:26:36;;;;;;;46.53;32.30;;;;;;;9.49;100.00;22859.44;5095199;28;20184;-65
2024/01/01 06:29:03;;;;;;;51.27;34.40;;;;;;;9.77;100.00;20697.88;5095079;28;20234;-64
2024/01/01 06:31:30;;;;;;;51.80;34.07;;;;;;;9.77;100.00;17012.09;5094887;28;20185;-65
2024/01/01 06:33:58;;;;;;;48.97;35.33;;;;;;;9.89;100.00;10958.41;5094809;28;20196;-64
2024/01/01 06:36:25;;;;;;;54.00;35.93;;;;;;;10.24;100.00;5523.88;5094940;28;20636;-64
2024/01/01 06:38:52;;;;;;;51.20;34.17;;;;;;;10.59;100.00;2969.19;5094952;28;20253;-64
2024/01/01 06:41:20;;;;;;;45.43;31.30;;;;;;;10.83;100.00;413.09;5094717;28;20191;-65
2024/01/01 06:43:47;;;;;;;43.03;29.90;;;;;;;11.35;100.00;-543.63;5094861;28;20222;-64
2024/01/01 06:46:14;;;;;;;39.10;30.43;;;;;;;11.64;100.00;6505.53;5093346;28;20238;-64
2024/01/01 06:48:42;;;;;;;45.67;31.17;;;;;;;12.30;100.00;18738.50;5094769;28;20298;-64
2024/01/01 06:51:12;;;;;;;35.40;26.70;;;;;;;12.63;100.00;46918.06;5094428;28;20188;-64
2024/01/01 06:53:39;;;;;;;30.87;25.87;;;;;;;13.06;100.00;68495.28;5094284;28;20277;-64
2024/01/01 06:56:06;;;;;;;32.70;26.40;;;;;;;13.62;100.00;93230.06;5094372;28;20226;-64
2024/01/01 06:58:35;;;;;;;30.80;26.17;;;;;;;13.60;100.00;135735.44;5094580;28;20553;-65
2024/01/01 07:01:02;;;;;;;33.53;26.63;;;;;;;14.48;100.00;149677.06;5094453;28;20639;-63
2024/01/01 07:03:30;;;;;;;32.20;26.07;;;;;;;15.23;100.00;149866.06;5094550;28;20212;-64
2024/01/01 07:05:57;;;;;;;34.60;27.77;;;;;;;15.69;100.00;149980.31;5094034;28;20188;-64
2024/01/01 07:08:24;;;;;;;30.07;25.87;;;;;;;16.33;100.00;150142.81;5094310;28;20609;-65
2024/01/01 07:10:51;;;;;;;28.90;25.73;;;;;;;17.03;100.00;150318.09;5094174;28;20642;-64
2024/01/01 07:13:18;;;;;;;34.73;26.33;;;;;;;17.64;100.00;150470.63;5093827;28;20180;-64
2024/01/01 07:15:46;;;;;;;31.37;26.43;;;;;;;18.37;100.00;150653.69;5094351;28;20612;-64
2024/01/01 07:18:14;;;;;;;37.47;27.03;;;;;;;18.97;100.00;150805.06;5093903;28;20184;-65
2024/01/01 07:20:41;;;;;;;29.67;25.10;;;;;;;19.36;100.00;150904.31;5093810;28;20222;-64
2024/01/01 07:23:08;;;;;;;26.45;23.77;;;;;;;19.71;100.00;150992.19;5093741;28;20204;-65
2024/01/01 07:25:35;;;;;;;27.58;24.40;;;;;;;20.16;100.00;151104.19;5093642;28;20286;-64
2024/01/01 07:28:03;;;;;;;29.07;24.93;;;;;;;20.66;100.00;151230.34;5093945;28;20608;-64
2024/01/01 07:30:30;;;;;;;25.08;22.42;;;;;;;20.92;100.00;151296.53;5093683;28;20190;-65
2024/01/01 07:32:58;;;;;;;25.70;23.20;;;;;;;20.58;100.00;151209.97;5093526;28;20187;-64
2024/01/01 07:35:25;;;;;;;26.83;22.80;;;;;;;20.07;100.00;151082.59;5093649;28;20184;-64
2024/01/01 07:37:52;;;;;;;24.63;22.23;;;;;;;19.87;100.00;151032.91;5093765;28;20675;-65
2024/01/01 07:40:20;;;;;;;24.30;21.77;;;;;;;20.37;100.00;151159.00;5093448;28;20188;-65
2024/01/01 07:42:47;;;;;;;24.38;21.95;;;;;;;20.39;100.00;151162.81;5093155;28;20294;-65
2024/01/01 07:45:15;;;;;;;24.40;21.67;;;;;;;21.39;100.00;151415.09;5093501;28;20180;-65
2024/01/01 07:47:42;;;;;;;24.35;21.83;;;;;;;21.53;100.00;151449.50;5093298;28;20188;-65
2024/01/01 07:50:10;;;;;;;23.23;20.73;;;;;;;21.88;100.00;151540.03;5093382;28;20188;-64
2024/01/01 07:52:38;;;;;;;22.70;20.65;;;;;;;21.83;100.00;151527.25;5093399;28;20261;-65
2024/01/01 07:55:06;;;;;;;22.13;19.92;;;;;;;21.03;100.00;151324.59;5093163;28;20188;-64
2024/01/01 07:57:34;;;;;;;20.92;19.10;;;;;;;21.41;100.00;151421.50;5093069;28;20610;-65
2024/01/01 08:00:01;;;;;;;21.50;19.65;;;;;;;21.51;100.00;151444.44;5093004;28;20184;-65
2024/01/01 08:02:28;;;;;;;21.90;19.88;;;;;;;21.29;100.00;151389.63;5093460;28;20666;-65
2024/01/01 08:04:57;;;;;;;21.13;19.33;;;;;;;21.28;100.00;151388.34;5093305;28;20242;-65
2024/01/01 08:07:25;;;;;;;19.52;17.92;;;;;;;20.77;100.00;151259.63;5092830;28;20195;-65
2024/01/01 08:09:52;;;;;;;19.55;17.88;;;;;;;21.03;100.00;151323.31;5093228;28;20539;-66
2024/01/01 08:12:19;;;;;;;19.95;18.13;;;;;;;21.06;100.00;151332.22;5092975;28;20187;-65
2024/01/01 08:14:47;;;;;;;16.75;15.55;;;;;;;21.57;100.00;151459.69;5092912;28;20188;-65
2024/01/01 08:17:14;;;;;;;18.23;16.63;;;;;;;22.58;100.00;151714.72;5093067;28;20619;-65
2024/01/01 08:19:41;;;;;;;17.63;16.23;;;;;;;21.89;100.00;151541.31;5092887;28;20184;-65
2024/01/01 08:22:08;;;;;;;16.05;14.82;;;;;;;22.35;100.00;151656.09;5092935;28;20176;-66
2024/01/01 08:24:36;;;;;;;16.13;14.93;;;;;;;22.84;100.00;151781.09;5092805;28;20555;-65
2024/01/01 08:27:04;;;;;;;16.25;15.05;;;;;;;22.60;100.00;151719.84;5092882;28;20261;-65
2024/01/01 08:29:31;;;;;;;15.95;14.85;;;;;;;22.73;100.00;151753.06;5092428;28;20199;-65
2024/01/01 08:31:58;;;;;;;15.15;14.18;;;;;;;22.18;100.00;151614.00;5092522;28;20192;-65
2024/01/01 08:34:25;;;;;;;14.95;13.75;;;;;;;22.17;100.00;151611.44;5092710;28;20497;-65
2024/01/01 08:36:52;;;;;;;14.63;13.75;;;;;;;22.52;100.00;151700.72;5092294;28;20188;-65
2024/01/01 08:39:19;;;;;;;15.68;14.57;;;;;;;23.27;100.00;151889.56;5092293;28;20254;-65
2024/01/01 08:41:48;;;;;;;15.10;13.93;;;;;;;22.78;100.00;151765.81;5092405;28;20184;-66
2024/01/01 08:44:15;;;;;;;14.65;13.57;;;;;;;21.74;100.00;151503.03;5091949;28;20249;-66
2024/01/01 08:46:42;;;;;;;17.70;16.15;;;;;;;19.87;100.00;151031.63;5092385;28;20217;-65
2024/01/01 08:49:09;;;;;;;18.70;16.90;;;;;;;18.88;100.00;150782.19;5092244;28;20249;-65
2024/01/01 08:51:37;;;;;;;17.10;15.70;;;;;;;18.00;100.00;150560.84;5092075;28;20184;-66
2024/01/01 08:54:05;;;;;;;20.03;18.10;;;;;;;17.74;100.00;150497.28;5092014;28;20273;-65
2024/01/01 08:56:33;;;;;;;18.97;17.37;;;;;;;17.83;100.00;150517.63;5092015;28;20184;-64
2024/01/01 08:59:01;;;;;;;19.93;17.93;;;;;;;17.92;100.00;150540.50;5092141;28;20197;-65
2024/01/01 09:01:28;;;;;;;20.03;18.13;;;;;;;18.10;100.00;150587.56;5092323;28;20187;-65
2024/01/01 09:03:56;;;;;;;20.13;18.30;;;;;;;18.05;100.00;150573.56;5091800;28;20273;-64
2024/01/01 09:06:24;;;;;;;19.17;17.53;;;;;;;18.09;100.00;150583.75;5092126;28;20194;-65
2024/01/01 09:08:51;;;;;;;19.60;17.73;;;;;;;17.71;100.00;150489.69;5091390;28;20194;-65
2024/01/01 09:11:18;;;;;;;20.50;18.40;;;;;;;17.77;100.00;150504.97;5091929;28;20188;-66
2024/01/01 09:13:45;;;;;;;18.43;16.77;;;;;;;18.14;100.00;150596.47;5092301;28;20227;-65
2024/01/01 09:16:13;;;;;;;19.50;17.90;;;;;;;19.54;100.00;150948.91;5092168;28;20593;-66
2024/01/01 09:18:41;;;;;;;16.70;15.38;;;;;;;20.63;100.00;151222.66;5092113;28;20238;-65
2024/01/01 09:21:14;;;;;;;17.15;15.88;;;;;;;21.50;100.00;151441.88;5091990;28;20249;-65
2024/01/01 09:23:41;;;;;;;19.05;17.33;;;;;;;20.50;100.00;151192.09;5091617;28;20238;-66
2024/01/01 09:26:08;;;;;;;17.55;16.15;;;;;;;20.08;100.00;151085.09;5092058;28;20550;-65
2024/01/01 09:28:35;;;;;;;17.25;15.88;;;;;;;19.09;100.00;150836.91;5091661;28;20188;-65
2024/01/01 09:31:02;;;;;;;18.20;16.90;;;;;;;18.77;100.00;150754.19;5091948;28;20587;-66
2024/01/01 09:33:30;;;;;;;16.77;15.40;;;;;;;18.30;100.00;150637.13;5091945;28;20237;-66
2024/01/01 09:35:57;;;;;;;19.13;17.23;;;;;;;18.04;100.00;150571.00;5091698;28;20245;-65
2024/01/01 09:38:24;;;;;;;18.63;16.83;;;;;;;18.01;100.00;150563.41;5091809;28;20184;-65
2024/01/01 09:40:55;;;;;;;16.83;15.20;;;;;;;18.31;100.00;150639.69;5091888;28;20640;-65
2024/01/01 09:43:22;;;;;;;17.80;16.30;;;;;;;18.21;100.00;150614.25;5091852;28;20571;-66
2024/01/01 09:45:49;;;;;;;17.07;15.70;;;;;;;17.96;100.00;150550.69;5091798;28;20257;-65
2024/01/01 09:48:17;;;;;;;16.67;15.27;;;;;;;18.05;100.00;150573.56;5091593;28;20713;-66
2024/01/01 09:50:48;;;;;;;16.20;14.80;;;;;;;17.72;100.00;150492.22;5091816;28;20604;-65
2024/01/01 09:53:17;;;;;;;15.30;14.00;;;;;;;17.27;100.00;150377.81;5091621;28;20227;-65
2024/01/01 09:55:51;;;;;;;15.10;13.90;;;;;;;17.28;100.00;150380.34;5091774;28;20222;-66
2024/01/01 09:58:18;;;;;;;13.13;12.03;;;;;;;17.44;100.00;150421.00;5091435;28;20184;-65
2024/01/01 10:00:45;;;;;;;14.57;13.40;;;;;;;18.11;100.00;150588.84;5091329;28;20185;-65
2024/01/01 10:03:12;;;;;;;15.10;13.93;;;;;;;18.33;100.00;150643.53;5091667;28;20627;-65
2024/01/01 10:05:40;;;;;;;13.80;12.87;;;;;;;18.55;100.00;150700.75;5091671;28;20218;-66
2024/01/01 10:08:13;;;;;;;12.53;11.70;;;;;;;19.19;100.00;150861.03;5091630;28;20638;-66
2024/01/01 10:10:41;;;;;;;11.97;11.37;;;;;;;18.78;100.00;150758.03;5091410;28;20271;-66
2024/01/01 10:13:09;;;;;;;11.97;11.20;;;;;;;18.98;100.00;150808.88;5091663;28;20245;-65
2024/01/01 10:15:38;;;;;;;11.43;10.60;;;;;;;19.63;100.00;150970.53;5091688;28;20563;-65
2024/01/01 10:18:10;;;;;;;11.70;10.82;;;;;;;20.24;100.00;151125.81;5091797;28;20291;-65
2024/01/01 10:20:37;;;;;;;11.27;10.77;;;;;;;20.32;100.00;151146.31;5092944;28;20223;-65
2024/01/01 10:23:28;;;;;;;10.15;9.65;;;;;;;21.18;100.00;151361.56;5094832;28;20180;-65
2024/01/01 10:26:06;;;;;;;10.32;9.77;;;;;;;21.22;100.00;151373.03;5094864;28;20184;-65
2024/01/01 10:28:34;;;;;;;10.23;9.68;;;;;;;20.80;100.00;151267.25;5094827;28;20194;-65
2024/01/01 10:31:02;;;;;;;10.93;10.18;;;;;;;19.92;100.00;151045.66;5094711;28;20184;-66
2024/01/01 10:33:31;;;;;;;10.50;10.10;;;;;;;18.89;100.00;150784.72;5094946;28;20180;-66
2024/01/01 10:36:00;;;;;;;12.17;11.43;;;;;;;19.18;100.00;150859.75;5094704;28;20189;-66
2024/01/01 10:38:29;;;;;;;12.20;11.57;;;;;;;19.63;100.00;150970.53;5094760;28;20223;-66
2024/01/01 10:40:58;;;;;;;11.68;10.77;;;;;;;19.96;100.00;151054.56;5094918;28;20534;-66
2024/01/01 10:43:27;;;;;;;11.15;10.65;;;;;;;19.81;100.00;151017.66;5094532;28;20203;-66
2024/01/01 10:46:02;;;;;;;12.50;11.60;;;;;;;18.65;100.00;150724.94;5094872;28;20638;-66
2024/01/01 10:48:30;;;;;;;11.80;11.20;;;;;;;18.58;100.00;150708.44;5094486;28;20194;-66
2024/01/01 10:51:11;;;;;;;12.10;11.33;;;;;;;18.43;100.00;150670.22;5094407;28;20188;-65
2024/01/01 10:54:10;;;;;;;10.23;9.73;;;;;;;19.68;100.00;150983.28;5094606;28;20227;-65
2024/01/01 10:56:44;;;;;;;10.27;9.82;;;;;;;21.92;100.00;151547.66;5050374;28;20203;-66
2024/01/01 10:59:19;;;;;;;9.85;9.27;;;;;;;22.66;100.00;151736.41;5094702;28;20237;-65
2024/01/01 11:01:50;;;;;;;9.27;8.90;;;;;;;22.15;100.00;151607.59;5094472;28;20199;-65
2024/01/01 11:04:19;;;;;;;10.02;9.45;;;;;;;21.20;100.00;151366.69;5094427;28;20208;-66
2024/01/01 11:06:46;;;;;;;9.38;9.07;;;;;;;21.24;100.00;151378.16;5094505;28;20635;-65
2024/01/01 11:09:34;;;;;;;9.20;8.80;;;;;;;21.90;100.00;151543.81;5094111;28;20184;-66
2024/01/01 11:12:02;;;;;;;9.32;8.95;;;;;;;22.66;100.00;151736.41;5094192;28;20188;-66
2024/01/01 11:14:31;;;;;;;9.10;8.60;;;;;;;22.88;98.17;151791.31;5094288;28;20595;-66